Terminal Aerodrome Forecast
Issued by NWS Pocatello, ID

Home | Current Version | Previous Version | Text Only | Print | Product List | Glossary On
Versions: 1 2 3 4 5 6 7 8 9 10 11 12 13
000
FTUS45 KPIH 241700
TAFIDA
TAF
KIDA 241720Z 2418/2518 23026G36KT P6SM FEW150
     FM250200 24010G20KT P6SM SKC
     FM250400 20011KT P6SM SKC=

USA.gov is the U.S. government's official web portal to all federal, state and local government web resources and services.